Time;durP1;ratioP1;P1;durP2;ratioP2;P2;SDS_P1;SDS_P2;PMS_P1;PMS_P2;Temp;Humidity;BMP_temperature;BMP_pressure;BME280_temperature;BME280_humidity;BME280_pressure;Samples;Min_cycle;Max_cycle;Signal;HPM_P1;HPM_P2
2021/11/06 00:04:52;;;;;;;9.50;8.00;;;;;;;6.81;80.77;101132.84;230540;1197;139184;-73
2021/11/06 00:09:54;;;;;;;10.00;8.90;;;;;;;6.83;80.69;101133.80;232605;1183;138574;-72
2021/11/06 00:14:55;;;;;;;10.20;9.20;;;;;;;6.78;81.16;101132.42;233308;1188;137796;-74
2021/11/06 00:19:57;;;;;;;9.10;8.30;;;;;;;6.76;81.39;101131.46;232259;1195;139133;-73
2021/11/06 00:25:00;;;;;;;10.70;9.50;;;;;;;6.77;81.48;101133.67;232464;1195;139236;-74
2021/11/06 00:30:05;;;;;;;11.20;9.70;;;;;;;6.79;81.13;101123.58;234448;1174;138904;-72
2021/11/06 00:35:10;;;;;;;13.00;9.40;;;;;;;6.80;81.12;101126.99;231579;1196;139403;-74
2021/11/06 00:40:16;;;;;;;10.40;9.30;;;;;;;6.84;81.22;101131.77;231592;1196;139559;-74
2021/11/06 00:45:20;;;;;;;9.90;8.90;;;;;;;6.84;81.17;101137.22;231039;1196;138739;-72
2021/11/06 00:50:22;;;;;;;10.80;9.80;;;;;;;6.83;81.43;101144.85;232223;1190;139958;-72
2021/11/06 00:55:24;;;;;;;12.10;10.20;;;;;;;6.83;81.41;101159.69;231612;1196;140098;-71
2021/11/06 01:00:29;;;;;;;15.50;10.90;;;;;;;6.81;81.80;101160.76;231887;1196;138980;-72
2021/11/06 01:05:31;;;;;;;10.50;9.50;;;;;;;6.82;81.67;101155.95;231451;1196;139217;-72
2021/11/06 01:10:33;;;;;;;12.20;10.20;;;;;;;6.81;81.70;101158.97;231208;1196;141052;-72
2021/11/06 01:20:56;;;;;;;12.20;10.90;;;;;;;6.79;82.08;101159.29;232496;1183;139090;-72
2021/11/06 01:25:58;;;;;;;11.00;10.00;;;;;;;6.79;82.10;101164.52;231914;1190;138635;-72
2021/11/06 01:30:59;;;;;;;10.90;9.90;;;;;;;6.85;82.04;101172.39;230600;1198;139662;-70
2021/11/06 01:36:02;;;;;;;12.80;11.20;;;;;;;6.83;82.36;101174.73;230718;1198;140857;-72
2021/11/06 01:41:03;;;;;;;12.30;11.10;;;;;;;6.87;82.01;101176.09;231773;1197;139196;-72
2021/11/06 01:46:07;;;;;;;14.10;12.60;;;;;;;6.92;81.92;101170.09;231903;1198;139249;-70
2021/11/06 01:51:09;;;;;;;14.80;13.30;;;;;;;6.96;81.58;101172.21;231585;1198;139757;-70
2021/11/06 01:56:12;;;;;;;13.10;11.70;;;;;;;6.93;81.57;101166.51;231984;1198;138691;-71
2021/11/06 02:01:22;;;;;;;14.20;11.80;;;;;;;6.84;82.19;101168.19;230448;1198;138666;-73
2021/11/06 02:06:24;;;;;;;12.80;11.50;;;;;;;6.90;82.14;101186.33;231897;1184;139325;-70
2021/11/06 02:11:28;;;;;;;13.50;12.20;;;;;;;6.93;82.18;101195.44;231462;1196;138743;-71
2021/11/06 02:16:30;;;;;;;13.90;12.40;;;;;;;6.92;82.22;101197.25;232346;1177;139336;-70
2021/11/06 02:21:36;;;;;;;11.70;10.40;;;;;;;6.97;82.06;101187.96;230776;1191;139450;-70
2021/11/06 02:26:38;;;;;;;10.80;9.80;;;;;;;6.98;82.12;101181.91;231085;1197;140111;-69
2021/11/06 02:31:40;;;;;;;12.70;11.60;;;;;;;7.03;82.18;101179.81;230572;1196;141791;-71
2021/11/06 02:44:16;;;;;;;13.40;12.10;;;;;;;7.08;82.20;101180.48;228707;1206;636349;-71
2021/11/06 02:49:22;;;;;;;14.60;11.50;;;;;;;7.03;82.65;101187.33;231395;1199;139040;-70
2021/11/06 02:54:27;;;;;;;12.00;10.30;;;;;;;7.03;82.70;101201.36;230785;1201;139534;-70
2021/11/06 02:59:30;;;;;;;12.60;11.30;;;;;;;6.99;82.95;101193.58;231019;1201;138079;-69
2021/11/06 03:04:37;;;;;;;12.30;11.20;;;;;;;6.97;83.00;101187.65;230766;1193;138025;-68
2021/11/06 03:09:39;;;;;;;12.80;11.50;;;;;;;6.97;82.62;101196.00;231419;1200;138294;-70
2021/11/06 03:14:46;;;;;;;13.20;11.80;;;;;;;7.00;82.25;101198.63;230889;1200;137980;-72
2021/11/06 03:19:54;;;;;;;12.00;10.80;;;;;;;7.01;81.99;101207.10;231377;1196;138035;-71
2021/11/06 03:24:57;;;;;;;11.20;10.20;;;;;;;7.04;81.89;101205.16;231408;1196;138248;-70
2021/11/06 03:30:01;;;;;;;13.90;12.60;;;;;;;7.06;82.01;101204.82;230376;1196;137986;-73
2021/11/06 03:35:08;;;;;;;12.90;11.70;;;;;;;7.10;81.55;101207.88;230981;1196;137910;-71
2021/11/06 03:40:15;;;;;;;11.20;10.20;;;;;;;7.09;81.64;101212.45;231686;1196;138187;-72
2021/11/06 03:45:23;;;;;;;12.20;10.80;;;;;;;7.12;81.02;101218.42;231578;1196;138756;-74
2021/11/06 03:50:26;;;;;;;10.60;9.50;;;;;;;7.14;80.74;101216.28;231796;1196;137962;-71
2021/11/06 03:55:28;;;;;;;11.20;10.10;;;;;;;7.11;80.71;101214.48;232762;1177;137766;-71
2021/11/06 04:00:29;;;;;;;11.00;10.00;;;;;;;7.13;80.67;101216.56;231320;1196;139512;-71
2021/11/06 04:05:31;;;;;;;13.00;9.90;;;;;;;7.15;80.47;101221.91;230912;1196;138803;-70
2021/11/06 04:10:36;;;;;;;11.10;10.00;;;;;;;7.09;80.35;101217.01;231133;1197;138524;-72
2021/11/06 04:15:58;;;;;;;12.30;10.70;;;;;;;7.11;80.12;101213.75;230595;1198;138830;-71
2021/11/06 04:20:59;;;;;;;11.30;10.20;;;;;;;7.06;80.11;101210.58;231358;1200;141466;-71
2021/11/06 04:26:01;;;;;;;13.00;10.50;;;;;;;7.06;79.82;101206.92;230251;1200;139347;-71
2021/11/06 04:31:03;;;;;;;11.70;10.30;;;;;;;7.10;79.52;101210.14;231725;1181;138175;-72
2021/11/06 04:36:09;;;;;;;10.30;9.40;;;;;;;7.05;79.79;101207.15;231844;1199;137943;-72
2021/11/06 04:41:17;;;;;;;11.20;10.20;;;;;;;7.06;79.46;101214.97;232142;1180;138652;-71
2021/11/06 04:46:19;;;;;;;10.40;9.50;;;;;;;7.07;79.14;101217.73;232275;1196;138175;-71
2021/11/06 04:51:20;;;;;;;9.60;8.70;;;;;;;7.09;78.92;101218.46;231725;1196;137786;-69
2021/11/06 04:56:22;;;;;;;10.00;9.00;;;;;;;7.10;78.94;101213.33;230831;1199;137744;-71
2021/11/06 05:01:24;;;;;;;10.00;9.00;;;;;;;7.07;78.88;101213.14;230500;1199;137662;-72
2021/11/06 05:06:27;;;;;;;9.30;8.00;;;;;;;7.07;78.90;101214.21;231558;1198;138098;-71
2021/11/06 05:11:29;;;;;;;9.60;8.80;;;;;;;7.06;78.73;101212.38;233418;1175;139597;-70
2021/11/06 05:16:33;;;;;;;8.70;7.80;;;;;;;7.01;78.86;101211.65;231449;1198;138016;-71
2021/11/06 05:21:38;;;;;;;8.90;8.10;;;;;;;7.05;78.36;101222.77;232357;1198;138259;-71
2021/11/06 05:26:48;;;;;;;8.50;7.70;;;;;;;7.04;78.10;101220.36;231081;1198;139010;-71
2021/11/06 05:31:52;;;;;;;8.90;7.60;;;;;;;7.02;78.07;101231.20;232448;1176;138408;-72
2021/11/06 05:36:53;;;;;;;10.30;9.30;;;;;;;7.03;78.22;101236.41;232377;1182;138185;-71
2021/11/06 05:41:55;;;;;;;8.30;7.50;;;;;;;7.01;78.43;101241.08;233125;1195;138063;-71
2021/11/06 05:46:56;;;;;;;7.60;7.00;;;;;;;7.02;78.38;101244.55;232078;1195;138357;-75
2021/11/06 05:51:58;;;;;;;8.90;8.10;;;;;;;7.07;78.23;101247.81;232940;1194;137753;-72
2021/11/06 05:57:00;;;;;;;9.00;8.10;;;;;;;7.07;78.45;101252.95;232169;1190;137516;-71
2021/11/06 06:02:01;;;;;;;10.20;9.20;;;;;;;7.15;78.49;101253.23;232877;1180;137916;-73
2021/11/06 06:12:23;;;;;;;10.20;9.10;;;;;;;7.28;78.24;101267.78;231332;1189;138250;-71
2021/11/06 06:17:24;;;;;;;9.00;7.50;;;;;;;7.29;78.45;101268.22;230046;1196;139411;-72
2021/11/06 06:22:26;;;;;;;8.60;7.70;;;;;;;7.15;79.14;101267.81;230183;1196;140457;-71
2021/11/06 06:27:27;;;;;;;10.20;8.90;;;;;;;7.13;79.40;101267.04;230156;1196;139920;-72
2021/11/06 06:32:29;;;;;;;9.30;8.40;;;;;;;7.13;79.38;101265.17;230637;1190;138920;-75
2021/11/06 06:37:31;;;;;;;11.40;10.20;;;;;;;7.15;79.44;101261.34;231413;1183;138147;-61
2021/11/06 06:42:33;;;;;;;10.50;9.60;;;;;;;7.13;79.74;101279.48;231221;1196;138196;-70
2021/11/06 06:47:36;;;;;;;10.00;9.00;;;;;;;7.24;79.62;101279.63;233107;1196;138005;-74
2021/11/06 06:52:39;;;;;;;9.90;8.90;;;;;;;7.35;79.30;101285.98;233606;1196;137747;-74
2021/11/06 06:57:41;;;;;;;10.10;7.50;;;;;;;7.33;79.41;101285.42;232615;1196;137521;-73
2021/11/06 07:02:43;;;;;;;9.60;8.70;;;;;;;7.36;79.37;101292.73;230471;1196;139632;-74
2021/11/06 07:07:45;;;;;;;9.20;8.40;;;;;;;7.41;79.07;101297.17;232409;1177;138134;-72
2021/11/06 07:12:46;;;;;;;10.70;9.20;;;;;;;7.41;79.23;101301.48;231117;1196;137759;-71
2021/11/06 07:17:48;;;;;;;8.00;7.20;;;;;;;7.42;79.28;101305.12;230877;1196;138319;-74
2021/11/06 07:22:50;;;;;;;8.50;7.30;;;;;;;7.49;78.77;101309.86;231022;1196;138370;-71
2021/11/06 07:27:52;;;;;;;9.40;8.10;;;;;;;7.60;78.49;101308.71;231027;1195;138188;-71
2021/11/06 07:32:56;;;;;;;8.50;6.70;;;;;;;7.67;77.84;101311.59;231401;1195;139375;-77
2021/11/06 07:38:02;;;;;;;;;;;;;;;7.67;77.58;101311.56;231605;1195;138049;-73
2021/11/06 07:43:06;;;;;;;7.10;6.30;;;;;;;7.71;77.72;101318.96;230821;1197;124170;-76
2021/11/06 07:48:14;;;;;;;10.30;7.60;;;;;;;7.83;76.80;101313.00;233793;1184;138348;-77
2021/11/06 07:53:19;;;;;;;6.60;5.40;;;;;;;7.91;76.24;101315.60;233955;1196;137569;-78
2021/11/06 07:58:26;;;;;;;7.00;5.80;;;;;;;7.98;75.52;101328.40;234531;1182;139358;-76
2021/11/06 08:03:28;;;;;;;6.00;5.40;;;;;;;8.05;75.01;101325.27;231472;1195;138172;-76
2021/11/06 08:08:37;;;;;;;7.20;6.00;;;;;;;8.13;74.82;101334.14;233403;1182;138410;-77
2021/11/06 08:13:47;;;;;;;5.90;5.30;;;;;;;8.27;74.65;101329.10;234935;1178;138174;-77
2021/11/06 08:18:56;;;;;;;7.40;5.90;;;;;;;8.43;74.08;101334.37;231729;1196;137759;-75
2021/11/06 08:23:58;;;;;;;9.40;8.00;;;;;;;8.36;74.09;101335.92;231038;1196;138267;-73
2021/11/06 08:29:02;;;;;;;10.10;7.50;;;;;;;8.47;73.95;101332.63;231016;1196;138559;-74
2021/11/06 08:34:04;;;;;;;5.80;5.20;;;;;;;8.51;74.24;101339.56;231818;1196;137916;-73
2021/11/06 08:39:06;;;;;;;7.30;5.80;;;;;;;8.53;74.08;101350.96;231584;1196;138813;-73
2021/11/06 08:44:08;;;;;;;5.40;4.80;;;;;;;8.47;74.51;101359.14;230818;1196;138186;-79
2021/11/06 08:49:10;;;;;;;6.00;5.20;;;;;;;8.35;74.94;101361.34;231129;1196;138460;-74
2021/11/06 08:54:11;;;;;;;6.30;5.70;;;;;;;8.28;75.48;101363.55;229914;1196;137835;-76
2021/11/06 08:59:17;;;;;;;6.40;5.30;;;;;;;8.26;76.03;101363.38;229800;1196;137886;-76
2021/11/06 09:04:20;;;;;;;6.40;4.70;;;;;;;8.28;75.76;101363.38;231074;1196;138471;-75
2021/11/06 09:09:22;;;;;;;5.70;5.10;;;;;;;8.25;75.83;101368.69;230406;1196;138060;-74
2021/11/06 09:14:24;;;;;;;6.30;5.40;;;;;;;8.24;76.15;101367.20;230890;1195;138154;-76
2021/11/06 09:19:26;;;;;;;9.50;5.70;;;;;;;8.23;76.27;101371.70;230968;1189;138189;-74
2021/11/06 09:24:31;;;;;;;7.50;5.80;;;;;;;8.17;76.56;101369.54;229823;1195;137769;-75
2021/11/06 09:29:33;;;;;;;9.00;6.40;;;;;;;8.14;76.68;101370.76;230051;1196;138348;-73
2021/11/06 09:34:34;;;;;;;6.30;5.70;;;;;;;8.15;76.77;101380.69;230012;1195;137945;-74
2021/11/06 09:39:37;;;;;;;11.60;9.30;;;;;;;8.12;77.55;101382.11;230288;1196;138115;-72
2021/11/06 09:44:38;;;;;;;8.70;7.00;;;;;;;8.06;77.88;101385.17;230378;1196;138237;-74
2021/11/06 09:49:41;;;;;;;8.60;7.30;;;;;;;7.98;78.42;101380.40;229701;1196;138076;-73
2021/11/06 09:54:43;;;;;;;8.90;7.00;;;;;;;7.98;78.56;101372.43;230151;1196;138610;-71
2021/11/06 09:59:45;;;;;;;8.40;7.20;;;;;;;8.04;77.97;101368.86;230027;1189;137741;-75
2021/11/06 10:04:47;;;;;;;8.90;7.60;;;;;;;8.01;77.75;101370.29;230352;1196;137714;-74
2021/11/06 10:09:54;;;;;;;9.10;7.60;;;;;;;7.97;78.24;101365.13;230109;1196;138941;-73
2021/11/06 10:15:08;;;;;;;8.30;7.50;;;;;;;7.93;78.74;101362.45;230681;1196;138155;-72
2021/11/06 10:20:30;;;;;;;11.80;7.50;;;;;;;7.88;79.10;101359.36;230521;1196;137769;-72
2021/11/06 10:25:32;;;;;;;7.40;6.70;;;;;;;7.87;79.41;101357.63;230654;1196;138170;-74
2021/11/06 10:30:38;;;;;;;12.70;9.60;;;;;;;7.92;79.32;101354.13;231848;1196;137915;-74
2021/11/06 10:35:43;;;;;;;10.00;8.10;;;;;;;7.91;79.40;101359.48;231385;1196;138305;-72
2021/11/06 10:41:07;;;;;;;12.20;8.70;;;;;;;7.94;79.16;101357.33;231150;1196;139417;-76
2021/11/06 10:46:15;;;;;;;9.50;8.40;;;;;;;7.98;78.63;101364.55;230716;1196;139274;-75
2021/11/06 10:51:16;;;;;;;8.60;7.80;;;;;;;7.97;78.81;101365.48;230369;1196;138172;-73
2021/11/06 10:56:28;;;;;;;8.80;7.90;;;;;;;8.01;79.02;101365.21;229771;1196;138373;-71
2021/11/06 11:01:34;;;;;;;8.20;7.30;;;;;;;8.03;79.14;101361.86;229981;1196;138315;-75
2021/11/06 11:06:48;;;;;;;9.20;7.80;;;;;;;8.01;79.34;101356.98;230565;1196;138765;-74
2021/11/06 11:11:52;;;;;;;9.70;7.80;;;;;;;8.00;79.49;101356.35;230655;1196;139209;-73
2021/11/06 11:16:56;;;;;;;8.50;7.70;;;;;;;8.08;79.25;101347.68;230131;1196;139352;-73
2021/11/06 11:21:58;;;;;;;9.00;8.10;;;;;;;8.18;78.97;101342.40;229899;1196;138838;-74
2021/11/06 11:26:59;;;;;;;7.40;6.70;;;;;;;8.19;78.81;101340.38;230348;1196;138128;-75
2021/11/06 11:32:03;;;;;;;7.80;6.90;;;;;;;8.29;78.89;101333.50;231007;1196;140475;-74
2021/11/06 11:37:05;;;;;;;8.60;7.40;;;;;;;8.48;78.12;101322.58;230454;1195;138143;-71
2021/11/06 11:42:26;;;;;;;7.60;6.60;;;;;;;8.60;77.52;101319.21;229632;1196;137963;-73
2021/11/06 11:47:38;;;;;;;7.50;6.70;;;;;;;8.78;77.10;101313.94;230519;1196;138624;-74
2021/11/06 11:52:43;;;;;;;8.20;7.40;;;;;;;9.03;75.98;101305.29;230333;1196;137881;-74
2021/11/06 11:58:24;;;;;;;8.80;6.50;;;;;;;9.08;75.89;101297.88;230559;1196;137749;-75
2021/11/06 12:03:41;;;;;;;5.90;5.40;;;;;;;9.16;75.97;101295.50;230561;1196;139385;-75
2021/11/06 12:08:43;;;;;;;6.40;5.30;;;;;;;9.34;75.45;101287.54;231073;1196;138106;-75
2021/11/06 12:13:49;;;;;;;6.20;5.60;;;;;;;9.44;75.31;101285.67;231448;1196;137859;-74
2021/11/06 12:19:00;;;;;;;5.40;4.50;;;;;;;9.60;74.19;101282.11;231923;1196;138699;-74
2021/11/06 12:24:11;;;;;;;6.60;5.30;;;;;;;9.56;74.12;101283.45;232092;1196;138227;-74
2021/11/06 12:29:21;;;;;;;6.30;4.60;;;;;;;9.61;74.09;101289.64;232245;1196;138513;-69
2021/11/06 12:34:41;;;;;;;6.50;4.10;;;;;;;9.68;73.64;101290.64;231673;1196;138244;-75
2021/11/06 12:39:55;;;;;;;3.90;3.30;;;;;;;9.76;72.94;101288.41;231006;1182;137711;-74
2021/11/06 12:45:10;;;;;;;4.80;3.40;;;;;;;9.80;72.81;101294.03;231348;1196;140734;-75
2021/11/06 12:50:18;;;;;;;4.20;3.60;;;;;;;9.89;71.65;101291.52;231751;1196;138044;-75
2021/11/06 12:55:20;;;;;;;6.50;3.70;;;;;;;9.89;72.07;101287.79;233141;1196;138072;-73
2021/11/06 13:00:33;;;;;;;4.70;3.50;;;;;;;9.91;71.82;101296.63;231995;1196;138629;-75
2021/11/06 13:05:45;;;;;;;4.40;3.20;;;;;;;9.91;71.28;101300.19;231309;1196;138563;-73
2021/11/06 13:10:49;;;;;;;4.10;3.10;;;;;;;9.95;70.37;101302.50;233395;1195;138160;-76
2021/11/06 13:15:54;;;;;;;3.80;3.00;;;;;;;9.93;70.25;101290.11;233094;1196;137835;-73
2021/11/06 13:20:56;;;;;;;4.70;3.10;;;;;;;9.92;70.58;101296.19;232329;1196;136971;-71
2021/11/06 13:26:01;;;;;;;5.50;3.10;;;;;;;9.90;71.09;101293.95;230610;1196;136915;-74
2021/11/06 13:31:05;;;;;;;6.80;3.40;;;;;;;9.87;71.11;101299.64;230975;1196;137200;-72
2021/11/06 13:36:10;;;;;;;10.40;7.20;;;;;;;9.90;70.58;101305.35;231915;1196;228441;-75
2021/11/06 13:41:18;;;;;;;6.50;3.00;;;;;;;9.90;70.28;101313.77;232598;1195;137530;-74
2021/11/06 13:46:40;;;;;;;4.90;3.00;;;;;;;9.91;70.20;101301.08;232107;1195;138253;-76
2021/11/06 13:51:57;;;;;;;5.60;3.60;;;;;;;9.92;70.09;101297.61;232853;1181;138683;-76
2021/11/06 13:57:15;;;;;;;5.80;3.90;;;;;;;9.89;70.56;101296.63;232213;1196;138182;-73
2021/11/06 14:02:29;;;;;;;5.10;3.40;;;;;;;9.87;70.66;101303.71;232132;1196;137388;-74
2021/11/06 14:12:52;;;;;;;5.30;4.20;;;;;;;9.84;70.92;101303.40;231677;1191;138141;-59
2021/11/06 14:18:00;;;;;;;6.30;3.50;;;;;;;9.80;71.06;101304.23;232356;1176;138657;-72
2021/11/06 14:23:04;;;;;;;9.90;8.50;;;;;;;9.78;71.11;101307.05;231804;1196;138436;-72
2021/11/06 14:28:16;;;;;;;6.50;5.20;;;;;;;9.85;70.91;101303.81;232026;1196;139868;-73
2021/11/06 14:33:28;;;;;;;4.70;3.60;;;;;;;9.89;70.80;101308.58;231516;1196;138802;-78
2021/11/06 14:38:45;;;;;;;7.50;5.20;;;;;;;9.85;70.74;101314.21;233069;1184;138065;-73
2021/11/06 14:43:51;;;;;;;;;;;;;;;9.83;70.33;101313.02;230651;1195;137684;-71
2021/11/06 14:48:56;;;;;;;4.50;4.10;;;;;;;9.81;70.15;101326.15;229896;1196;124448;-72
2021/11/06 14:53:57;;;;;;;5.30;4.20;;;;;;;9.79;70.24;101323.34;232322;1182;138062;-72
2021/11/06 14:59:01;;;;;;;5.50;4.50;;;;;;;9.72;70.38;101323.74;231487;1190;139467;-69
2021/11/06 15:04:06;;;;;;;6.60;4.70;;;;;;;9.67;70.44;101317.34;231100;1196;139543;-73
2021/11/06 15:09:19;;;;;;;4.90;3.90;;;;;;;9.68;70.30;101319.48;231092;1196;139130;-73
2021/11/06 15:14:24;;;;;;;6.00;4.40;;;;;;;9.64;70.01;101322.66;232502;1178;138160;-75
2021/11/06 15:19:27;;;;;;;4.20;3.80;;;;;;;9.64;69.63;101315.61;231624;1196;138167;-74
2021/11/06 15:24:29;;;;;;;6.30;4.30;;;;;;;9.59;69.71;101318.23;231228;1196;138093;-72
2021/11/06 15:29:33;;;;;;;10.00;6.20;;;;;;;9.51;70.17;101321.70;231548;1196;138024;-73
2021/11/06 15:34:38;;;;;;;6.40;4.40;;;;;;;9.45;70.41;101318.31;230970;1197;138534;-73
2021/11/06 15:39:54;;;;;;;4.20;3.70;;;;;;;9.45;70.41;101317.63;231051;1196;137852;-75
2021/11/06 15:44:58;;;;;;;5.10;4.20;;;;;;;9.40;70.51;101316.61;231596;1196;138417;-74
2021/11/06 15:50:07;;;;;;;5.10;4.60;;;;;;;9.40;70.62;101317.70;231992;1196;139117;-76
2021/11/06 15:55:11;;;;;;;3.80;3.10;;;;;;;9.37;70.66;101306.45;231850;1196;138489;-79
2021/11/06 16:00:19;;;;;;;4.50;3.50;;;;;;;9.35;71.01;101308.79;232280;1197;138263;-83
2021/11/06 16:05:27;;;;;;;6.40;4.80;;;;;;;9.39;71.03;101304.08;233038;1182;139047;-80
2021/11/06 16:10:29;;;;;;;8.90;6.20;;;;;;;9.41;71.00;101304.27;231152;1196;137976;-78
2021/11/06 16:15:32;;;;;;;6.00;5.10;;;;;;;9.38;71.09;101308.39;230927;1196;140190;-74
2021/11/06 16:20:39;;;;;;;5.90;5.30;;;;;;;9.36;71.22;101311.35;230937;1196;138622;-76
2021/11/06 16:25:41;;;;;;;8.30;5.80;;;;;;;9.37;71.27;101314.76;231966;1196;138464;-75
2021/11/06 16:30:46;;;;;;;6.90;5.20;;;;;;;9.33;71.32;101312.95;233057;1196;140130;-76
2021/11/06 16:35:48;;;;;;;6.30;4.90;;;;;;;9.33;71.20;101311.57;232759;1197;138338;-77
2021/11/06 16:40:51;;;;;;;10.00;6.00;;;;;;;9.38;70.60;101309.06;231688;1196;137946;-78
2021/11/06 16:45:53;;;;;;;8.50;5.80;;;;;;;9.32;70.74;101305.09;231361;1196;138183;-75
2021/11/06 16:50:55;;;;;;;8.40;6.20;;;;;;;9.34;70.45;101297.77;230881;1191;138319;-75
2021/11/06 16:55:57;;;;;;;10.10;5.60;;;;;;;9.37;70.50;101292.73;231084;1197;138439;-76
2021/11/06 17:00:59;;;;;;;6.40;5.60;;;;;;;9.28;70.73;101298.77;231547;1196;138017;-79
2021/11/06 17:06:04;;;;;;;9.50;4.70;;;;;;;9.18;70.69;101290.27;231386;1196;138593;-79
2021/11/06 17:11:08;;;;;;;9.40;4.90;;;;;;;9.19;70.29;101293.48;231775;1196;140299;-76
2021/11/06 17:16:10;;;;;;;8.30;5.70;;;;;;;9.10;70.39;101289.11;232266;1196;138290;-79
2021/11/06 17:21:17;;;;;;;7.10;4.50;;;;;;;8.99;70.77;101280.52;230957;1196;138439;-78
2021/11/06 17:26:22;;;;;;;5.80;4.50;;;;;;;8.89;71.00;101276.38;231520;1196;137619;-76
2021/11/06 17:31:24;;;;;;;8.20;5.40;;;;;;;8.88;70.78;101275.02;230950;1196;138917;-74
2021/11/06 17:36:26;;;;;;;5.70;4.90;;;;;;;8.83;70.87;101274.41;231407;1196;138597;-75
2021/11/06 17:41:28;;;;;;;9.90;5.50;;;;;;;8.77;71.09;101281.73;231780;1196;137388;-76
2021/11/06 17:46:30;;;;;;;10.10;6.00;;;;;;;8.75;71.19;101278.55;231731;1196;138505;-75
2021/11/06 17:51:54;;;;;;;6.00;5.30;;;;;;;8.81;70.91;101277.02;232527;1196;140107;-77
2021/11/06 17:56:56;;;;;;;8.70;5.60;;;;;;;8.80;70.88;101278.64;231722;1196;138087;-76
2021/11/06 18:01:58;;;;;;;8.00;5.40;;;;;;;8.79;70.88;101276.27;231154;1196;137789;-78
2021/11/06 18:07:01;;;;;;;10.00;5.80;;;;;;;8.85;70.48;101265.75;231627;1196;138308;-71
2021/11/06 18:12:03;;;;;;;8.00;5.80;;;;;;;8.89;70.12;101268.11;231323;1196;152119;-75
2021/11/06 18:17:05;;;;;;;8.20;5.40;;;;;;;8.85;70.16;101274.39;230839;1196;138377;-76
2021/11/06 18:22:20;;;;;;;8.50;5.60;;;;;;;8.78;70.46;101272.30;231667;1196;138395;-75
2021/11/06 18:27:25;;;;;;;7.20;5.10;;;;;;;8.81;70.04;101269.04;231321;1197;138786;-78
2021/11/06 18:32:28;;;;;;;6.90;5.10;;;;;;;8.78;70.58;101268.13;231538;1196;137377;-75
2021/11/06 18:37:29;;;;;;;7.50;5.30;;;;;;;8.77;70.58;101263.10;231582;1196;137911;-75
2021/11/06 18:42:33;;;;;;;5.60;4.80;;;;;;;8.76;70.65;101262.43;231827;1196;138228;-75
2021/11/06 18:47:36;;;;;;;10.60;6.60;;;;;;;8.76;70.76;101264.19;231255;1196;137990;-79
2021/11/06 18:52:38;;;;;;;8.00;5.80;;;;;;;8.74;70.76;101259.46;232056;1196;138282;-76
2021/11/06 18:57:45;;;;;;;9.50;5.90;;;;;;;8.73;70.57;101257.27;231118;1197;137826;-75
2021/11/06 19:02:47;;;;;;;9.60;6.50;;;;;;;8.72;70.60;101265.09;231825;1196;138686;-77
2021/11/06 19:07:49;;;;;;;12.10;7.50;;;;;;;8.73;70.26;101257.98;231537;1196;137769;-74
2021/11/06 19:12:55;;;;;;;9.40;5.90;;;;;;;8.76;69.58;101264.89;232225;1196;138333;-77
2021/11/06 19:17:58;;;;;;;6.70;5.00;;;;;;;8.80;68.77;101264.41;231868;1196;140385;-75
2021/11/06 19:23:00;;;;;;;11.10;6.70;;;;;;;8.79;68.93;101262.02;231215;1196;137921;-75
2021/11/06 19:28:02;;;;;;;8.70;5.10;;;;;;;8.79;68.73;101258.50;231474;1196;138401;-76
2021/11/06 19:38:15;;;;;;;7.20;5.80;;;;;;;8.76;68.23;101252.05;231744;1190;138744;-74
2021/11/06 19:43:18;;;;;;;8.00;5.10;;;;;;;8.79;68.09;101250.84;231827;1198;138246;-75
2021/11/06 19:48:20;;;;;;;7.40;5.30;;;;;;;8.75;68.08;101255.50;231277;1198;138692;-72
2021/11/06 19:53:22;;;;;;;7.20;5.20;;;;;;;8.72;67.88;101254.01;230824;1197;138597;-76
2021/11/06 19:58:24;;;;;;;9.00;5.70;;;;;;;8.71;67.75;101255.30;231569;1198;138487;-74
2021/11/06 20:03:26;;;;;;;7.90;5.60;;;;;;;8.70;67.23;101260.50;230995;1198;137728;-75
2021/11/06 20:08:28;;;;;;;7.40;5.10;;;;;;;8.63;67.26;101259.14;231353;1198;137878;-76
2021/11/06 20:13:35;;;;;;;7.00;4.80;;;;;;;8.61;67.37;101250.66;232150;1198;139578;-74
2021/11/06 20:18:39;;;;;;;6.60;4.50;;;;;;;8.59;67.23;101243.77;231653;1198;138728;-78
2021/11/06 20:23:40;;;;;;;7.30;5.20;;;;;;;8.61;66.74;101235.67;231530;1197;137095;-75
2021/11/06 20:28:42;;;;;;;7.90;5.10;;;;;;;8.56;66.98;101233.95;231812;1198;137415;-77
2021/11/06 20:33:45;;;;;;;7.40;5.30;;;;;;;8.52;66.98;101231.61;232803;1182;136910;-78
2021/11/06 20:38:47;;;;;;;6.90;5.40;;;;;;;8.46;67.23;101225.80;232077;1196;137282;-74
2021/11/06 20:52:54;;;;;;;8.90;5.90;;;;;;;8.43;67.27;101214.76;229628;1209;636163;-74
2021/11/06 20:57:56;;;;;;;6.70;5.20;;;;;;;8.37;67.45;101209.98;231054;1198;137667;-74
2021/11/06 21:03:00;;;;;;;9.30;6.60;;;;;;;8.34;67.55;101210.54;230584;1198;137310;-61
2021/11/06 21:08:04;;;;;;;11.20;7.00;;;;;;;8.36;67.56;101200.54;231896;1195;138926;-75
2021/11/06 21:13:34;;;;;;;16.00;13.30;;;;;;;8.31;67.90;101193.02;232239;1195;137433;-76
2021/11/06 21:18:43;;;;;;;10.40;7.60;;;;;;;8.35;67.93;101180.08;231667;1195;137658;-75
2021/11/06 21:23:45;;;;;;;8.80;6.60;;;;;;;8.42;67.58;101176.41;231907;1195;138128;-74
2021/11/06 21:28:51;;;;;;;8.00;6.20;;;;;;;8.38;67.47;101179.52;232094;1190;137297;-76
2021/11/06 21:33:56;;;;;;;8.50;7.60;;;;;;;8.34;67.57;101175.25;233490;1196;137936;-74
2021/11/06 21:39:08;;;;;;;7.60;6.70;;;;;;;8.31;67.53;101165.96;231637;1195;137515;-74
2021/11/06 21:44:11;;;;;;;10.70;6.40;;;;;;;8.27;67.59;101159.14;231945;1195;137687;-73
2021/11/06 21:49:14;;;;;;;6.90;5.50;;;;;;;8.28;67.42;101151.33;232158;1195;138625;-75
2021/11/06 21:54:16;;;;;;;7.90;6.50;;;;;;;8.27;67.38;101142.11;230975;1196;137870;-75
2021/11/06 21:59:18;;;;;;;9.00;7.60;;;;;;;8.19;67.41;101137.59;231927;1195;137454;-75
2021/11/06 22:04:21;;;;;;;8.20;6.90;;;;;;;8.13;67.45;101128.80;232271;1195;137681;-76
2021/11/06 22:09:23;;;;;;;7.80;6.00;;;;;;;8.06;67.53;101129.48;232941;1195;137133;-76
2021/11/06 22:14:28;;;;;;;7.10;5.70;;;;;;;7.95;68.17;101116.13;233242;1196;137548;-77
2021/11/06 22:19:42;;;;;;;6.60;5.90;;;;;;;7.96;67.98;101110.05;232018;1196;138035;-77
2021/11/06 22:24:44;;;;;;;9.30;7.00;;;;;;;7.89;68.03;101100.14;231975;1196;137464;-79
2021/11/06 22:29:46;;;;;;;10.70;7.60;;;;;;;7.78;68.26;101093.92;231518;1195;137855;-78
2021/11/06 22:34:48;;;;;;;9.30;6.60;;;;;;;7.74;68.34;101094.61;230978;1196;138885;-78
2021/11/06 22:39:50;;;;;;;8.30;6.40;;;;;;;7.69;68.50;101097.65;231450;1196;137845;-78
2021/11/06 22:44:54;;;;;;;7.90;6.40;;;;;;;7.69;68.31;101097.77;231421;1196;138026;-75
2021/11/06 22:49:57;;;;;;;7.90;6.90;;;;;;;7.58;68.84;101091.79;232035;1196;137392;-76
2021/11/06 22:54:59;;;;;;;9.40;6.80;;;;;;;7.47;69.38;101088.02;231749;1196;137539;-74
2021/11/06 23:00:19;;;;;;;13.90;10.50;;;;;;;7.38;69.49;101088.71;232050;1195;138872;-76
2021/11/06 23:05:26;;;;;;;9.60;7.70;;;;;;;7.33;69.66;101083.87;233164;1185;139359;-72
2021/11/06 23:10:28;;;;;;;8.70;7.00;;;;;;;7.31;69.72;101077.86;231018;1196;137787;-76
2021/11/06 23:15:39;;;;;;;10.70;8.10;;;;;;;7.25;69.60;101073.40;231626;1195;137064;-76
2021/11/06 23:20:42;;;;;;;9.60;8.30;;;;;;;7.11;69.87;101070.55;232318;1195;137209;-75
2021/11/06 23:25:46;;;;;;;11.10;8.50;;;;;;;7.04;70.15;101066.17;231830;1196;137143;-75
2021/11/06 23:30:48;;;;;;;13.00;10.20;;;;;;;7.03;70.23;101053.66;231511;1196;137989;-75
2021/11/06 23:35:50;;;;;;;10.90;8.10;;;;;;;7.06;69.94;101042.91;232412;1180;138315;-76
2021/11/06 23:40:52;;;;;;;9.90;8.70;;;;;;;6.98;70.07;101037.72;232286;1196;137645;-72
2021/11/06 23:45:55;;;;;;;11.60;8.50;;;;;;;6.84;70.49;101041.41;231967;1195;137832;-74
